AirNav   Everest Fuels
 
 635 users online  

NH93 Sean Heliport
Pelham, New Hampshire, USA

GOING TO PELHAM?


FAA INFORMATION EFFECTIVE 05 DECEMBER 2019

Location

FAA Identifier: NH93
Lat/Long: 42-45-46.3000N 071-18-54.9800W
42-45.771667N 071-18.916333W
42.7628611,-71.3152722
(estimated)
Elevation: 150 ft. / 46 m (estimated)
Time zone: UTC -5 (UTC -4 during Daylight Saving Time)
Zip code: 03076

Heliport Operations

Heliport use: Private use. Permission required prior to landing
Activation date: 02/2003
Control tower: no
ARTCC: BOSTON CENTER
FSS: BANGOR FLIGHT SERVICE STATION
Attendance: UNATNDD
Segmented circle: no

Heliport Communications

WX AWOS-3PT at ASH (9 nm W): 125.1 (603-578-0473)
WX ASOS at LWM (9 nm E): PHONE 978-687-8017
WX ASOS at MHT (11 nm NW): 119.55 (603-621-1766)
WX ASOS at BED (18 nm S): 124.6 (781-274-9733)

Nearby radio navigation aids

VOR radial/distance  VOR name  Freq  Var
MHTr174/6.8MANCHESTER VOR/DME114.4015W
LWMr293/9.8LAWRENCE VOR/DME112.5015W
BOSr345/28.3BOSTON VOR/DME112.7016W
PSMr244/28.7PEASE VOR/DME116.5016W
CONr172/29.7CONCORD VOR/DME112.9015W
GDMr082/35.3GARDNER VOR/DME110.6014W

 
NDB name  Hdg/Dist  Freq  Var  ID
FITZY138/11.220915WMJ -- .---
ROLLINS234/34.826016WESG . ... --.

Heliport Services

Runway Information

Helipad H1

Dimensions: 500 x 500 ft. / 152 x 152 m
Surface: asphalt
Traffic pattern: leftleft

Heliport Ownership and Management from official FAA records

Ownership: Privately-owned
Owner: SEAN BROWDER
10 WILLIAM DR
PELHAM, NH 03076
Phone 603-635-1532
Manager: SEAN BROWDER
10 WILLIAM DR
PELHAM, NH 03076
Phone 603-635-1532

Additional Remarks

FOR CD CTC BOSTON APCH AT 603-594-5551.

Instrument Procedures

There are no published instrument procedures at NH93.

Some nearby airports with instrument procedures:

KASH - Boire Field Airport (9 nm W)
KLWM - Lawrence Municipal Airport (9 nm E)
KMHT - Manchester Airport (11 nm NW)
KBED - Laurence G Hanscom Field Airport (18 nm S)
6B6 - Minute Man Air Field (20 nm SW)
 
Loc | Ops | Rwys | IFR | FBO | Links
Com | Nav | Svcs | Stats | Notes
Area around NH93 (Sean Heliport)
 
Road maps at: MapQuest Bing Google
 
Aerial photo
No photo
 
Sectional chart

 
Airport distance calculator
Flying to Sean Heliport? Find the distance to fly.

From to NH93

Sunrise and sunset
Times for 14-Dec-2019
 Local
(UTC-5)
 Zulu
(UTC)
Morning civil twilight06:3711:37
Sunrise07:0912:09
Sunset16:1121:11
Evening civil twilight16:4321:43

Current date and time
Zulu (UTC)  14-Dec-2019 13:50:29
Local (UTC-5)  14-Dec-2019 08:50:29
 
METAR
KLWM 
8nm E 
141317Z VRB05KT 4SM -RA BR OVC004 11/10 A2959 RMK AO2 P0001 T01060100
KASH 
9nm W 
141325Z 30005KT 1 1/4SM -RA BR OVC003 07/07 A2958 RMK AO2 PNO $
KMHT 
11nm NW 
141332Z 04007KT 2SM R35/5500VP6000FT -RA BR SCT005 OVC011 08/08 A2957 RMK AO2 P0005 T00830078 $
KBED 
18nm S 
141341Z 04003KT 1SM R11/5000VP6000FT -RA BR VV004 12/10 A2953 RMK AO2 PRESFR P0007 T01170100
TAF
KMHT 
11nm NW 
141120Z 1412/1512 04009KT 3SM RA BR OVC008 WS020/12035KT FM141800 VRB03KT 2SM -DZ BR OVC005 WS020/12035KT FM150000 17007KT 2SM BR OVC007 FM150400 21008KT P6SM OVC015 FM150900 23009G17KT P6SM OVC035
KBED 
18nm S 
141140Z 1412/1512 08012KT 6SM -RA BR SCT007 OVC015 WS020/13040KT FM141700 18007KT 3SM BR VCSH OVC008 FM150100 19012G22KT P6SM VCSH OVC008 FM150300 21015G27KT P6SM OVC010 FM150600 23017G31KT P6SM BKN020 FM150800 24016G32KT P6SM BKN040
NOTAMs
Click for the latest NOTAMs
NOTAMs are issued by the DoD/FAA and will open in a separate window not controlled by AirNav.

 

 
 

Would you like to see your business listed on this page?

 If your business provides an interesting product or service to pilots, flight crews, aircraft, or users of the Sean Heliport, you should consider listing it here.  To start the listing process, click on the button below
 
Add a business
 

Other Pages about Sean Heliport

Update a link
 
Copyright © AirNav, LLC. All rights reserved. Privacy Policy  Contact